Terminal Aerodrome Forecast
Issued by NWS

Home | Current Version | Previous Version | Text Only | Print | Product List | Glossary On
Versions: 1 2 3 4 5 6 7 8 9 10 11 12 13 14 15
000
FTUS43 KGRR 291900 AAA
TAFMKG
TAF AMD
KMKG 291922Z 2919/3018 19021G32KT 3SM -SNPL BR OVC030
     FM292200 21022G32KT 4SM -SHRA OVC015
     FM300200 26014G22KT P6SM SCT015 BKN035
     FM300600 28012G22KT P6SM FEW035=

USA.gov is the U.S. government's official web portal to all federal, state and local government web resources and services.